This is the latest recevied weather packets stored in our database for station/object N2XP-3. If no packets are shown the sender has not sent any weather packets the latest 1 day(s).
| Time | Temp. | Humidity | Pressure | Rain* | Wind** | Luminosity | Snow |
|---|---|---|---|---|---|---|---|
| 1777991941 | 28.33° C | 41% | 1008.2 hPa | 0 mm | 2.24 m/s, 271° | - | - |
| 1777991709 | 28.33° C | 40% | 1008.3 hPa | 0 mm | 1.34 m/s, 207° | - | - |
| 1777991641 | 28.33° C | 40% | 1008.3 hPa | 0 mm | 1.34 m/s, 207° | - | - |
| 1777991336 | 27.78° C | 41% | 1008.5 hPa | 0 mm | 1.34 m/s, 273° | - | - |
| 1777990731 | 27.78° C | 41% | 1008.8 hPa | 0 mm | 1.79 m/s, 288° | - | - |
| 1777990427 | 28.33° C | 41% | 1008.7 hPa | 0 mm | 1.34 m/s, 329° | - | - |
| 1777990128 | 28.33° C | 40% | 1008.9 hPa | 0 mm | 1.79 m/s, 225° | - | - |
| 1777989828 | 28.33° C | 41% | 1008.8 hPa | 0 mm | 0.89 m/s, 238° | - | - |
| 1777989525 | 27.78° C | 42% | 1008.8 hPa | 0 mm | 1.34 m/s, 170° | - | - |
| 1777989225 | 27.22° C | 42% | 1008.8 hPa | 0 mm | 1.79 m/s, 240° | - | - |
| 1777988926 | 26.67° C | 44% | 1008.7 hPa | 0 mm | 1.34 m/s, 219° | - | - |
| 1777988321 | 26.67° C | 44% | 1008.7 hPa | 0 mm | 2.24 m/s, 195° | - | - |
| 1777988022 | 26.11° C | 45% | 1008.6 hPa | 0 mm | 2.24 m/s, 259° | - | - |
| 1777987717 | 25.56° C | 48% | 1008.7 hPa | 0 mm | 1.79 m/s, 288° | - | - |
| 1777987415 | 24.44° C | 50% | 1008.6 hPa | 0 mm | 1.34 m/s, 257° | - | - |
| 1777987227 | 24.44° C | 50% | 1008.6 hPa | 0 mm | 2.68 m/s, 267° | - | - |
| 1777987116 | 24.44° C | 50% | 1008.6 hPa | 0 mm | 2.68 m/s, 267° | - | - |
| 1777986835 | 25° C | 49% | 1008.7 hPa | 0 mm | 2.24 m/s, 197° | - | - |
| 1777986511 | 25° C | 49% | 1008.7 hPa | 0 mm | 2.24 m/s, 197° | - | - |
| 1777986212 | 24.44° C | 51% | 1008.6 hPa | 0 mm | 1.79 m/s, 321° | - | - |
| 1777985905 | 24.44° C | 51% | 1008.6 hPa | 0 mm | 1.34 m/s, 172° | - | - |
| 1777985602 | 24.44° C | 51% | 1008.6 hPa | 0 mm | 2.68 m/s, 325° | - | - |
| 1777985302 | 25° C | 52% | 1008.7 hPa | 0 mm | 1.79 m/s, 297° | - | - |
| 1777984997 | 25.56° C | 50% | 1008.7 hPa | 0 mm | 2.24 m/s, 256° | - | - |
| 1777984698 | 26.11° C | 49% | 1008.7 hPa | 0 mm | 1.79 m/s, 243° | - | - |
* Rain latest hour (hover to see other rain measurements)
** Current wind speed in m/s (hover to see current wind gust speed)